Time;durP1;ratioP1;P1;durP2;ratioP2;P2;SDS_P1;SDS_P2;PMS_P1;PMS_P2;Temp;Humidity;BMP_temperature;BMP_pressure;BME280_temperature;BME280_humidity;BME280_pressure;Samples;Min_cycle;Max_cycle;Signal;HPM_P1;HPM_P2
2022/08/29 00:02:00;;;;;;;9.95;6.28;;;;;;;21.83;66.12;99668.69;7763630;32;39396;-75
2022/08/29 00:06:17;;;;;;;11.25;6.18;;;;;;;22.20;65.33;99660.28;7763599;32;38087;-75
2022/08/29 00:10:34;;;;;;;14.15;6.53;;;;;;;22.36;64.95;99663.91;7763418;32;37940;-75
2022/08/29 00:14:50;;;;;;;13.35;6.28;;;;;;;22.42;64.82;99662.50;7763278;32;40049;-75
2022/08/29 00:19:06;;;;;;;9.13;5.97;;;;;;;22.50;64.40;99661.50;7763177;32;40918;-74
2022/08/29 00:23:22;;;;;;;15.63;6.78;;;;;;;22.58;64.44;99658.94;7763158;32;38155;-75
2022/08/29 00:27:39;;;;;;;12.57;6.35;;;;;;;21.99;67.25;99666.81;7763071;32;37082;-75
2022/08/29 00:31:59;;;;;;;10.23;6.47;;;;;;;22.02;67.13;99668.88;8005638;26;40352;-73
2022/08/29 00:36:15;;;;;;;9.88;5.60;;;;;;;22.13;66.76;99667.22;7790199;32;39945;-73
2022/08/29 00:40:39;;;;;;;11.23;6.32;;;;;;;22.13;66.64;99658.87;7789903;32;38618;-74
2022/08/29 00:44:55;;;;;;;9.20;5.68;;;;;;;21.80;67.79;99672.16;7790005;32;37995;-73
2022/08/29 00:49:38;;;;;;;10.45;5.62;;;;;;;21.99;66.92;99669.59;7789714;32;39347;-73
2022/08/29 00:54:01;;;;;;;8.65;4.95;;;;;;;22.05;66.79;99668.16;7777118;32;40065;-73
2022/08/29 00:58:25;;;;;;;8.93;5.18;;;;;;;21.92;67.19;99666.56;7776181;32;37842;-74
2022/08/29 01:02:42;;;;;;;9.10;5.60;;;;;;;21.58;68.54;99677.06;7789538;32;37252;-74
2022/08/29 01:06:58;;;;;;;9.30;5.70;;;;;;;21.26;69.90;99676.81;7779623;32;39435;-73
2022/08/29 01:15:51;;;;;;;8.68;5.35;;;;;;;21.60;68.77;99679.50;7781631;32;37988;-73
2022/08/29 01:20:21;;;;;;;7.90;5.15;;;;;;;21.89;67.91;99672.84;7793338;32;37041;-73
2022/08/29 01:24:49;;;;;;;8.52;5.12;;;;;;;21.66;68.83;99686.41;7780327;32;40017;-72
2022/08/29 01:29:05;;;;;;;9.65;5.93;;;;;;;21.57;69.01;99687.34;7793189;32;39880;-73
2022/08/29 01:33:21;;;;;;;10.02;5.30;;;;;;;21.44;69.22;99693.22;7793012;32;37894;-73
2022/08/29 01:37:40;;;;;;;10.65;5.95;;;;;;;21.41;69.10;99691.16;7793020;32;37204;-73
2022/08/29 01:41:57;;;;;;;10.95;6.45;;;;;;;21.07;70.22;99694.00;7779349;32;38422;-73
2022/08/29 01:46:15;;;;;;;10.18;5.60;;;;;;;21.04;70.17;99688.34;7792968;32;40020;-73
2022/08/29 01:50:31;;;;;;;9.98;5.40;;;;;;;21.31;69.31;99684.91;7792894;32;36929;-73
2022/08/29 01:54:48;;;;;;;9.93;5.20;;;;;;;21.58;68.28;99699.25;7792959;32;38028;-73
2022/08/29 01:59:06;;;;;;;8.52;5.37;;;;;;;21.52;68.25;99697.88;7792896;32;39300;-72
2022/08/29 02:03:24;;;;;;;10.30;5.93;;;;;;;21.23;69.36;99691.38;7792874;32;40652;-73
2022/08/29 02:07:41;;;;;;;11.50;6.05;;;;;;;21.11;69.51;99694.13;7792635;32;37615;-73
2022/08/29 02:11:59;;;;;;;10.63;6.40;;;;;;;21.21;69.07;99685.34;7792707;32;37057;-74
2022/08/29 02:16:16;;;;;;;10.95;6.43;;;;;;;21.03;69.58;99695.87;7791704;32;39381;-73
2022/08/29 02:20:32;;;;;;;10.95;6.70;;;;;;;20.81;70.12;99700.66;7792537;32;39994;-73
2022/08/29 02:24:48;;;;;;;10.88;6.43;;;;;;;20.77;70.49;99696.97;7792531;32;37912;-73
2022/08/29 02:29:04;;;;;;;14.40;6.95;;;;;;;20.72;70.79;99690.84;7792456;32;37428;-73
2022/08/29 02:33:20;;;;;;;11.70;6.40;;;;;;;20.75;70.61;99684.62;7792223;32;40115;-73
2022/08/29 02:37:37;;;;;;;16.02;7.45;;;;;;;20.91;69.87;99682.00;7792391;32;40774;-72
2022/08/29 02:41:53;;;;;;;12.75;7.37;;;;;;;20.52;71.32;99681.41;7792290;32;38639;-73
2022/08/29 02:46:15;;;;;;;11.90;7.70;;;;;;;21.08;69.27;99679.00;7792288;32;37103;-73
2022/08/29 02:50:31;;;;;;;13.35;7.18;;;;;;;20.96;69.39;99685.34;7792286;32;40182;-73
2022/08/29 02:54:47;;;;;;;12.30;7.60;;;;;;;20.70;70.67;99684.84;7792159;32;40771;-72
2022/08/29 02:59:04;;;;;;;11.73;7.53;;;;;;;20.71;70.58;99683.69;7792015;32;37833;-73
2022/08/29 03:03:20;;;;;;;13.48;8.27;;;;;;;20.51;70.73;99674.25;7792016;32;37155;-73
2022/08/29 03:07:36;;;;;;;11.75;7.20;;;;;;;20.71;69.94;99678.94;7791910;32;39854;-73
2022/08/29 03:11:55;;;;;;;11.02;7.72;;;;;;;20.97;68.85;99675.88;7791904;32;40536;-73
2022/08/29 03:16:11;;;;;;;18.48;7.78;;;;;;;20.57;70.10;99675.66;7792055;32;37752;-73
2022/08/29 03:20:27;;;;;;;15.25;8.30;;;;;;;20.19;71.92;99690.50;7791832;32;37101;-73
2022/08/29 03:24:43;;;;;;;13.02;8.50;;;;;;;20.64;70.10;99684.22;7791832;32;40190;-72
2022/08/29 03:28:59;;;;;;;14.45;7.45;;;;;;;20.37;71.08;99697.50;7791228;32;40058;-73
2022/08/29 03:33:17;;;;;;;11.63;7.97;;;;;;;20.61;70.19;99702.31;7791346;32;38716;-73
2022/08/29 03:37:33;;;;;;;12.65;7.95;;;;;;;20.22;71.51;99696.16;7791580;32;37834;-73
2022/08/29 03:41:48;;;;;;;14.07;8.10;;;;;;;20.21;71.49;99713.94;7791471;32;39956;-72
2022/08/29 03:46:05;;;;;;;12.57;8.07;;;;;;;19.91;72.79;99715.16;7791347;32;39741;-73
2022/08/29 03:50:23;;;;;;;13.95;8.52;;;;;;;20.30;71.19;99713.03;7791008;32;38833;-72
2022/08/29 03:54:39;;;;;;;13.80;8.50;;;;;;;20.08;71.52;99724.13;7791175;32;38895;-73
2022/08/29 03:58:57;;;;;;;14.95;8.98;;;;;;;20.17;71.16;99729.59;7791043;32;39309;-73
2022/08/29 04:03:13;;;;;;;13.18;8.70;;;;;;;20.58;69.87;99738.19;7791019;32;39727;-73
2022/08/29 04:07:30;;;;;;;13.62;8.50;;;;;;;20.66;69.56;99730.97;7790725;32;37936;-73
2022/08/29 04:11:46;;;;;;;13.75;8.48;;;;;;;20.31;70.87;99731.28;7790646;32;37677;-73
2022/08/29 04:16:12;;;;;;;13.45;8.02;;;;;;;20.36;71.04;99728.31;7790679;32;39865;-73
2022/08/29 04:20:34;;;;;;;12.25;8.52;;;;;;;20.62;69.51;99730.84;7790614;32;39959;-72
2022/08/29 04:24:50;;;;;;;14.87;8.60;;;;;;;20.34;70.81;99733.38;7790389;32;38496;-73
2022/08/29 04:29:08;;;;;;;14.55;8.10;;;;;;;20.46;70.26;99738.97;7790206;32;37180;-73
2022/08/29 04:33:24;;;;;;;14.27;8.13;;;;;;;20.55;69.74;99742.44;7789953;32;41943;-73
2022/08/29 04:37:41;;;;;;;15.43;8.45;;;;;;;20.62;69.40;99739.97;7790475;32;40564;-72
2022/08/29 04:41:57;;;;;;;13.38;7.72;;;;;;;20.85;68.65;99738.78;7793574;32;38031;-73
2022/08/29 04:46:15;;;;;;;15.63;8.10;;;;;;;21.01;67.92;99742.50;7793750;32;37192;-76
2022/08/29 04:50:39;;;;;;;13.48;7.55;;;;;;;21.01;67.65;99743.31;7793745;32;39423;-81
2022/08/29 04:54:55;;;;;;;12.55;7.50;;;;;;;21.05;67.57;99753.72;7793818;32;40744;-77
2022/08/29 04:59:11;;;;;;;17.12;8.05;;;;;;;20.89;68.24;99756.34;7793625;32;37780;-75
2022/08/29 05:03:28;;;;;;;12.15;8.10;;;;;;;20.92;68.17;99762.00;7777042;32;37216;-74
2022/08/29 05:07:47;;;;;;;12.95;7.65;;;;;;;21.07;67.25;99756.94;7768307;32;40105;-81
2022/08/29 05:12:03;;;;;;;12.20;8.23;;;;;;;21.44;66.11;99752.28;7758207;32;40753;-74
2022/08/29 05:16:25;;;;;;;16.42;7.97;;;;;;;21.15;66.75;99753.28;7783653;32;38504;-73
2022/08/29 05:20:43;;;;;;;12.95;6.62;;;;;;;21.13;67.13;99755.59;7782347;32;37527;-74
2022/08/29 05:25:00;;;;;;;16.90;8.05;;;;;;;21.27;66.65;99761.62;7792874;32;38295;-74
2022/08/29 05:29:16;;;;;;;13.05;7.68;;;;;;;20.81;68.20;99766.34;7775120;32;39747;-74
2022/08/29 05:33:32;;;;;;;12.37;8.15;;;;;;;21.15;67.22;99764.37;7780889;32;38686;-74
2022/08/29 05:37:48;;;;;;;13.88;8.00;;;;;;;21.11;67.32;99780.06;7792478;32;37128;-74
2022/08/29 05:42:06;;;;;;;13.25;7.85;;;;;;;20.67;68.49;99788.00;7789827;32;38870;-74
2022/08/29 05:46:22;;;;;;;11.88;7.55;;;;;;;20.95;68.10;99780.69;7769737;32;41423;-75
2022/08/29 05:50:43;;;;;;;13.18;7.57;;;;;;;21.09;67.19;99796.22;7762174;32;37900;-74
2022/08/29 05:55:02;;;;;;;14.30;7.95;;;;;;;21.04;67.47;99779.81;7764481;32;37217;-74
2022/08/29 05:59:19;;;;;;;12.48;7.18;;;;;;;21.08;67.32;99786.31;7765529;32;40259;-73
2022/08/29 06:03:35;;;;;;;11.02;7.43;;;;;;;21.15;67.45;99792.09;7772100;32;39910;-74
2022/08/29 06:07:51;;;;;;;16.15;7.55;;;;;;;20.84;68.30;99798.91;7792299;32;37902;-74
2022/08/29 06:12:09;;;;;;;9.57;6.57;;;;;;;21.38;66.46;99789.69;7789768;32;37218;-74
2022/08/29 06:16:26;;;;;;;17.02;7.55;;;;;;;21.74;65.23;99790.91;7791448;32;39286;-75
2022/08/29 06:20:43;;;;;;;13.88;7.07;;;;;;;21.35;66.47;99796.75;7784423;32;40500;-74
2022/08/29 06:24:59;;;;;;;11.38;7.12;;;;;;;21.24;66.76;99801.09;7765309;32;38061;-84
2022/08/29 06:29:27;;;;;;;16.27;6.87;;;;;;;21.29;66.55;99798.13;7765955;32;37911;-75
2022/08/29 06:33:43;;;;;;;12.40;7.03;;;;;;;21.79;65.14;99804.53;7782231;32;39448;-74
2022/08/29 06:37:59;;;;;;;12.10;6.93;;;;;;;21.56;65.86;99804.19;7792063;32;40853;-76
2022/08/29 06:42:17;;;;;;;10.68;6.87;;;;;;;22.01;64.19;99808.81;7783184;32;37911;-73
2022/08/29 06:46:39;;;;;;;17.95;7.20;;;;;;;21.73;65.16;99811.47;7790566;32;36665;-72
2022/08/29 06:50:56;;;;;;;13.65;6.70;;;;;;;21.24;67.09;99822.47;7764666;32;40064;-72
2022/08/29 06:55:12;;;;;;;12.15;6.75;;;;;;;21.71;65.59;99820.16;7775151;32;39993;-74
2022/08/29 06:59:29;;;;;;;10.73;6.85;;;;;;;21.74;65.43;99819.44;7791105;32;38097;-73
2022/08/29 07:03:45;;;;;;;10.88;7.05;;;;;;;21.47;66.42;99820.94;7771161;32;36657;-74
2022/08/29 07:08:03;;;;;;;12.55;6.65;;;;;;;21.61;65.89;99820.63;7752133;32;39122;-73
2022/08/29 07:12:19;;;;;;;12.68;6.72;;;;;;;22.12;64.36;99825.81;7771507;32;40399;-73
2022/08/29 07:16:39;;;;;;;15.18;6.97;;;;;;;21.86;65.26;99826.16;7781540;32;38775;-74
2022/08/29 07:20:55;;;;;;;11.73;6.80;;;;;;;21.49;65.75;99828.91;7773359;32;38010;-73
2022/08/29 07:25:11;;;;;;;13.02;7.12;;;;;;;21.54;66.61;99834.22;7790689;32;39350;-72
2022/08/29 07:29:27;;;;;;;13.05;7.03;;;;;;;21.44;66.80;99829.09;7789288;32;39868;-75
2022/08/29 07:33:43;;;;;;;14.60;6.90;;;;;;;21.94;64.79;99836.34;7781317;32;37961;-73
2022/08/29 07:38:00;;;;;;;10.23;5.60;;;;;;;21.62;66.13;99832.50;7764069;32;37908;-73
2022/08/29 07:42:16;;;;;;;10.70;6.30;;;;;;;22.04;64.88;99833.09;7773373;32;39030;-72
2022/08/29 07:46:33;;;;;;;8.27;5.20;;;;;;;22.39;64.28;99821.50;7780255;32;40560;-73
2022/08/29 07:50:49;;;;;;;8.73;5.22;;;;;;;22.90;63.03;99840.44;7780177;32;38082;-74
2022/08/29 07:55:06;;;;;;;8.98;5.57;;;;;;;23.28;61.21;99830.78;7772156;32;37965;-74
2022/08/29 07:59:23;;;;;;;7.45;5.15;;;;;;;23.53;59.72;99845.34;7763049;32;39385;-73
2022/08/29 08:03:41;;;;;;;9.18;5.32;;;;;;;23.67;59.81;99844.09;7761808;32;39997;-75
2022/08/29 08:07:58;;;;;;;7.40;4.65;;;;;;;23.42;60.68;99844.25;7760115;32;37799;-74
2022/08/29 08:12:25;;;;;;;8.00;5.30;;;;;;;24.26;58.92;99842.34;7760573;32;38849;-73
2022/08/29 08:16:41;;;;;;;9.57;5.50;;;;;;;24.08;58.95;99847.53;7764751;32;39006;-75
2022/08/29 08:20:59;;;;;;;9.13;5.53;;;;;;;23.65;60.15;99854.78;7765842;32;39002;-74
2022/08/29 08:25:15;;;;;;;7.75;5.20;;;;;;;23.93;59.24;99858.28;7767006;32;38132;-79
2022/08/29 08:29:31;;;;;;;9.73;5.72;;;;;;;24.75;56.74;99864.16;7766873;32;37823;-75
2022/08/29 08:33:47;;;;;;;9.52;5.10;;;;;;;24.55;57.04;99866.91;7766111;32;39274;-73
2022/08/29 08:38:04;;;;;;;8.13;4.75;;;;;;;24.56;56.63;99862.16;7765570;32;40851;-77
2022/08/29 08:42:27;;;;;;;11.00;4.93;;;;;;;24.51;57.46;99857.66;7765531;32;37541;-78
2022/08/29 08:46:46;;;;;;;;;;;;;;;25.15;57.01;99857.41;7752316;32;37901;-76
2022/08/29 08:51:07;;;;;;;12.40;4.90;;;;;;;24.99;56.94;99857.50;7765390;32;40542;-75
2022/08/29 08:55:40;;;;;;;11.23;5.53;;;;;;;25.28;55.41;99870.03;7765230;32;39964;-75
2022/08/29 08:59:57;;;;;;;9.80;4.12;;;;;;;25.49;56.28;99858.47;7751911;32;37887;-75
2022/08/29 09:04:49;;;;;;;10.20;4.60;;;;;;;26.13;53.78;99857.94;7765155;32;37016;-75
2022/08/29 09:09:44;;;;;;;10.00;4.90;;;;;;;25.92;53.81;99860.38;7751986;32;39123;-75
2022/08/29 09:14:11;;;;;;;8.05;4.32;;;;;;;25.74;55.19;99858.09;7764925;32;39652;-74
2022/08/29 09:18:37;;;;;;;8.27;3.67;;;;;;;25.27;55.63;99848.87;7764540;32;37986;-75
2022/08/29 09:23:05;;;;;;;6.22;4.25;;;;;;;26.04;54.97;99843.44;7764594;32;37162;-74
2022/08/29 09:27:24;;;;;;;6.40;4.07;;;;;;;26.10;52.86;99847.53;7764191;32;39098;-75
2022/08/29 09:31:40;;;;;;;6.87;3.97;;;;;;;26.13;53.63;99846.78;7759487;32;156166;-75
2022/08/29 09:36:01;;;;;;;8.02;4.55;;;;;;;25.86;54.35;99849.50;7751974;32;38181;-74
2022/08/29 09:40:17;;;;;;;14.18;4.57;;;;;;;26.39;53.48;99847.94;7766133;32;37156;-74
2022/08/29 09:44:34;;;;;;;7.03;4.22;;;;;;;26.35;53.29;99835.91;7766070;32;40129;-74
2022/08/29 09:48:56;;;;;;;5.90;3.72;;;;;;;26.51;51.54;99838.50;7752156;32;39921;-74
2022/08/29 09:53:21;;;;;;;9.52;4.32;;;;;;;26.90;51.04;99838.22;7765855;32;38664;-75
2022/08/29 09:57:40;;;;;;;8.13;3.87;;;;;;;25.72;51.64;99842.91;7765701;32;37963;-74
2022/08/29 10:02:17;;;;;;;8.68;4.20;;;;;;;25.75;52.77;99837.38;7765779;32;39457;-75
2022/08/29 10:06:38;;;;;;;11.52;4.43;;;;;;;25.87;52.78;99839.13;7765795;32;39938;-76
2022/08/29 10:11:33;;;;;;;7.35;3.90;;;;;;;26.64;52.07;99836.31;7765670;32;37990;-76
2022/08/29 10:15:57;;;;;;;6.90;3.90;;;;;;;26.68;50.33;99838.00;7765801;32;37051;-74
2022/08/29 10:20:14;;;;;;;5.65;3.90;;;;;;;26.92;49.79;99819.91;7765560;32;40082;-74
2022/08/29 10:24:43;;;;;;;6.05;3.83;;;;;;;27.05;50.39;99819.63;7765465;32;40644;-74
2022/08/29 10:29:20;;;;;;;12.35;3.80;;;;;;;27.25;49.65;99820.22;7765556;32;38234;-75
2022/08/29 10:33:56;;;;;;;7.03;3.58;;;;;;;27.46;48.92;99826.06;7765303;32;38053;-79
2022/08/29 10:38:37;;;;;;;9.55;3.60;;;;;;;28.21;47.49;99819.47;7764615;32;39384;-79
2022/08/29 10:43:03;;;;;;;6.15;3.33;;;;;;;28.57;46.16;99819.69;7765412;32;40105;-79
2022/08/29 10:47:32;;;;;;;11.05;3.40;;;;;;;28.37;44.92;99816.34;7751659;32;38039;-78
2022/08/29 10:52:06;;;;;;;6.37;3.35;;;;;;;28.59;45.62;99818.06;7765236;32;37232;-78
2022/08/29 10:56:26;;;;;;;5.62;3.00;;;;;;;29.08;44.80;99807.44;7765158;32;39234;-78
2022/08/29 11:00:57;;;;;;;7.95;3.12;;;;;;;29.18;43.31;99809.50;7751596;32;39452;-73
2022/08/29 11:05:23;;;;;;;4.45;2.95;;;;;;;28.53;42.96;99799.19;7751509;32;38685;-73
2022/08/29 11:09:50;;;;;;;4.12;2.87;;;;;;;28.93;42.37;99800.19;7764892;32;37532;-72
2022/08/29 11:14:16;;;;;;;3.75;2.72;;;;;;;29.14;43.42;99791.78;7764679;32;39049;-72
2022/08/29 11:18:42;;;;;;;6.43;3.03;;;;;;;28.85;42.65;99796.53;7751767;32;39949;-72
2022/08/29 11:23:04;;;;;;;4.80;2.65;;;;;;;29.82;41.42;99788.28;7751305;32;38812;-73
2022/08/29 11:27:31;;;;;;;5.28;2.67;;;;;;;29.67;40.10;99786.66;7766862;32;37124;-72
2022/08/29 11:32:00;;;;;;;6.80;2.72;;;;;;;29.66;40.67;99785.06;7752637;32;39104;-72
2022/08/29 11:36:44;;;;;;;4.53;2.70;;;;;;;29.27;42.56;99777.41;7791804;32;39637;-72
2022/08/29 11:41:17;;;;;;;5.15;2.60;;;;;;;29.36;40.32;99781.44;7779310;32;37605;-73
2022/08/29 11:45:43;;;;;;;4.53;3.15;;;;;;;29.90;39.20;99773.00;7768134;32;37786;-71
2022/08/29 11:50:30;;;;;;;3.37;2.55;;;;;;;29.30;39.53;99768.97;7791129;32;39409;-72
2022/08/29 11:54:53;;;;;;;6.12;2.92;;;;;;;30.24;39.94;99772.53;7760017;32;40761;-72
2022/08/29 11:59:10;;;;;;;4.23;2.90;;;;;;;30.46;38.43;99764.84;7782799;32;37961;-72
2022/08/29 12:03:32;;;;;;;4.22;3.00;;;;;;;30.39;38.74;99761.25;7763912;32;38214;-72
2022/08/29 12:07:58;;;;;;;5.25;2.70;;;;;;;30.56;36.85;99766.00;7763715;32;40189;-71
2022/08/29 12:12:48;;;;;;;7.82;2.87;;;;;;;30.44;36.85;99758.00;7766868;32;40670;-73
2022/08/29 12:17:09;;;;;;;3.90;2.70;;;;;;;31.00;35.56;99756.16;7782219;32;37885;-72
2022/08/29 12:21:38;;;;;;;4.25;2.60;;;;;;;31.22;36.63;99753.19;7776190;32;37114;-72
2022/08/29 12:26:04;;;;;;;3.80;2.53;;;;;;;31.43;35.28;99738.91;7790434;32;40291;-74
2022/08/29 12:30:41;;;;;;;4.43;2.60;;;;;;;31.23;35.98;99744.31;7779431;32;40116;-74
2022/08/29 12:35:23;;;;;;;2.97;2.28;;;;;;;30.59;37.12;99745.50;7786803;32;38623;-72
2022/08/29 12:40:36;;;;;;;4.30;2.47;;;;;;;30.93;35.87;99738.47;7789719;32;36911;-72
2022/08/29 12:45:26;;;;;;;4.15;2.75;;;;;;;30.46;37.29;99733.09;7732847;32;39170;-71
2022/08/29 12:49:52;;;;;;;4.87;2.50;;;;;;;30.40;37.65;99737.56;7746908;32;40604;-72
2022/08/29 12:54:10;;;;;;;4.07;2.83;;;;;;;31.33;36.10;99728.53;7786292;32;37701;-72
2022/08/29 12:58:41;;;;;;;3.42;2.25;;;;;;;31.40;34.85;99727.69;7772410;32;38257;-72
2022/08/29 13:03:07;;;;;;;4.30;2.17;;;;;;;31.63;35.48;99727.91;7790272;32;38864;-72
2022/08/29 13:07:30;;;;;;;;;;;;;;;32.22;34.10;99719.63;7793970;32;40858;-71
2022/08/29 13:11:46;;;;;;;5.40;2.58;;;;;;;31.83;34.43;99721.66;7793613;32;38263;-71
2022/08/29 13:16:06;;;;;;;4.47;2.10;;;;;;;31.65;36.10;99716.22;7793502;32;37116;-73
2022/08/29 13:20:41;;;;;;;4.18;2.00;;;;;;;31.61;35.21;99721.88;7793549;32;39386;-73
2022/08/29 13:25:07;;;;;;;3.85;2.37;;;;;;;31.97;34.25;99709.44;7793401;32;40046;-73
2022/08/29 13:29:32;;;;;;;4.00;2.25;;;;;;;32.79;33.23;99696.34;7793386;32;38507;-74
2022/08/29 13:33:49;;;;;;;3.35;2.10;;;;;;;32.80;31.64;99691.47;7779893;32;37275;-71
2022/08/29 13:38:08;;;;;;;3.60;2.05;;;;;;;32.19;33.02;99685.44;7793165;32;40103;-73
2022/08/29 13:42:29;;;;;;;3.20;2.40;;;;;;;31.53;34.52;99692.19;7793071;32;40769;-73
2022/08/29 13:46:46;;;;;;;4.72;2.05;;;;;;;31.06;35.25;99695.38;7779443;32;37868;-73
2022/08/29 13:51:02;;;;;;;6.80;2.40;;;;;;;31.86;33.73;99691.84;7792824;32;37032;-74
2022/08/29 13:55:22;;;;;;;4.47;2.30;;;;;;;32.14;32.91;99697.16;7769597;32;40143;-72
2022/08/29 13:59:41;;;;;;;4.07;2.20;;;;;;;31.81;32.87;99693.91;7765494;32;40777;-73
2022/08/29 14:03:57;;;;;;;6.03;2.65;;;;;;;32.00;32.58;99691.69;7764917;32;37927;-76
2022/08/29 14:08:25;;;;;;;7.20;2.55;;;;;;;31.60;33.22;99685.69;7775039;32;37481;-74
2022/08/29 14:12:42;;;;;;;6.00;2.45;;;;;;;31.34;34.63;99693.53;7791427;32;39266;-75
2022/08/29 14:16:58;;;;;;;4.80;2.72;;;;;;;31.17;34.47;99691.69;7791551;32;39994;-73
2022/08/29 14:21:15;;;;;;;6.15;2.60;;;;;;;31.93;33.81;99686.13;7792447;32;37894;-74
2022/08/29 14:25:31;;;;;;;7.40;2.70;;;;;;;32.13;33.35;99689.94;7791581;32;36967;-73
2022/08/29 14:29:47;;;;;;;5.82;2.70;;;;;;;32.84;33.32;99690.22;7792124;32;39414;-75
2022/08/29 14:34:03;;;;;;;4.05;2.65;;;;;;;33.13;33.14;99692.56;7791852;32;40666;-73
2022/08/29 14:38:20;;;;;;;5.62;2.47;;;;;;;33.55;30.99;99687.44;7791422;32;38047;-76
2022/08/29 14:42:37;;;;;;;4.57;2.47;;;;;;;33.97;31.72;99702.00;7792139;32;37157;-74
2022/08/29 14:46:53;;;;;;;7.22;2.75;;;;;;;34.56;31.12;99716.56;7777214;32;39066;-75
2022/08/29 14:51:09;;;;;;;17.45;4.75;;;;;;;34.76;35.24;99723.00;7792124;32;40655;-74
2022/08/29 14:55:25;;;;;;;14.07;3.87;;;;;;;34.43;38.95;99739.09;7791382;32;38621;-74
2022/08/29 14:59:42;;;;;;;6.93;3.60;;;;;;;32.35;41.43;99729.16;7791345;32;37071;-74
2022/08/29 15:03:59;;;;;;;7.30;3.30;;;;;;;29.12;47.26;99732.47;7791791;32;39308;-75
2022/08/29 15:08:15;;;;;;;13.00;3.00;;;;;;;29.11;47.18;99736.47;7791079;32;40113;-74
2022/08/29 15:12:31;;;;;;;7.87;3.90;;;;;;;28.23;49.97;99747.78;7791684;32;38701;-73
2022/08/29 15:22:05;;;;;;;5.62;2.45;;;;;;;27.97;52.18;99762.88;7791062;32;40842;-72
2022/08/29 15:26:21;;;;;;;7.12;2.58;;;;;;;27.15;53.12;99758.19;7791642;32;40781;-73
2022/08/29 15:30:37;;;;;;;6.65;2.35;;;;;;;27.23;53.38;99767.44;7791595;32;37975;-73
2022/08/29 15:34:53;;;;;;;6.00;2.30;;;;;;;26.93;53.66;99759.16;7791800;32;38152;-73
2022/08/29 15:39:09;;;;;;;5.93;2.50;;;;;;;26.59;53.83;99757.16;7791590;32;39591;-73
2022/08/29 15:43:26;;;;;;;3.95;2.25;;;;;;;26.09;56.67;99755.72;7790598;32;40727;-73
2022/08/29 15:47:44;;;;;;;11.73;2.53;;;;;;;26.15;57.15;99760.59;7791479;32;36945;-73
2022/08/29 15:52:01;;;;;;;5.68;2.55;;;;;;;26.37;55.96;99744.09;7791414;32;37274;-73
2022/08/29 15:56:17;;;;;;;6.57;2.60;;;;;;;26.24;55.83;99735.97;7791401;32;40213;-82
2022/08/29 16:00:33;;;;;;;7.15;2.67;;;;;;;26.58;57.55;99737.97;7777158;32;39979;-81
2022/08/29 16:04:49;;;;;;;4.55;2.45;;;;;;;27.16;56.26;99731.00;7771679;32;38003;-81
2022/08/29 16:09:11;;;;;;;3.87;2.47;;;;;;;27.64;55.09;99736.63;7750882;32;37149;-80
2022/08/29 16:13:30;;;;;;;4.70;2.30;;;;;;;27.92;56.09;99729.63;7763047;32;39155;-73
2022/08/29 16:17:46;;;;;;;4.65;2.40;;;;;;;28.06;53.87;99735.31;7762928;32;40511;-73
2022/08/29 16:22:02;;;;;;;4.60;2.20;;;;;;;27.93;55.90;99748.03;7762382;32;38711;-73
2022/08/29 16:26:19;;;;;;;6.18;2.35;;;;;;;28.20;51.77;99750.56;7770937;32;36959;-73
2022/08/29 16:30:35;;;;;;;6.18;2.55;;;;;;;28.35;53.04;99741.03;7789685;32;39267;-74
2022/08/29 16:35:01;;;;;;;4.75;2.50;;;;;;;28.13;53.86;99745.78;7789889;32;40574;-74
2022/08/29 16:39:17;;;;;;;6.62;2.80;;;;;;;27.79;53.49;99754.31;7793211;32;37910;-74
2022/08/29 16:43:34;;;;;;;8.90;3.08;;;;;;;27.64;54.72;99764.63;7792860;32;37804;-73
2022/08/29 16:47:50;;;;;;;4.70;2.62;;;;;;;27.58;55.95;99770.97;7793081;32;39832;-73
2022/08/29 16:52:13;;;;;;;17.87;9.30;;;;;;;27.38;55.92;99767.63;7793619;32;40202;-73
2022/08/29 16:56:30;;;;;;;13.73;7.45;;;;;;;27.17;56.90;99769.00;7793477;32;38584;-72
2022/08/29 17:00:47;;;;;;;7.62;3.72;;;;;;;27.12;57.30;99767.34;7793563;32;37113;-72
2022/08/29 17:05:03;;;;;;;7.18;3.53;;;;;;;26.98;56.94;99776.41;7793635;32;39933;-72
2022/08/29 17:17:57;;;;;;;6.60;3.20;;;;;;;27.11;55.73;99773.31;7793380;32;37809;-81
2022/08/29 17:22:14;;;;;;;5.57;2.85;;;;;;;27.00;55.64;99778.00;7779685;32;40164;-81
2022/08/29 17:26:32;;;;;;;5.75;2.75;;;;;;;27.03;55.84;99783.66;7793827;32;38358;-87
2022/08/29 17:30:49;;;;;;;6.55;3.00;;;;;;;26.66;56.69;99786.41;7793289;32;38725;-73
2022/08/29 17:35:06;;;;;;;9.75;3.55;;;;;;;26.35;58.48;99793.97;7792878;32;37027;-72
2022/08/29 17:39:22;;;;;;;10.60;6.10;;;;;;;25.86;60.01;99795.66;7792602;32;40175;-72
2022/08/29 17:43:38;;;;;;;11.85;5.03;;;;;;;25.79;60.24;99790.75;7793175;32;40277;-72
2022/08/29 17:47:55;;;;;;;8.68;4.65;;;;;;;25.40;62.04;99799.28;7792802;32;37582;-73
2022/08/29 17:52:11;;;;;;;9.77;5.32;;;;;;;25.60;60.36;99800.03;7792906;32;37830;-73
2022/08/29 17:56:37;;;;;;;9.02;4.78;;;;;;;25.43;60.36;99809.72;7780786;32;39824;-73
2022/08/29 18:00:59;;;;;;;7.72;4.15;;;;;;;25.17;61.42;99817.97;7777619;32;40876;-72
2022/08/29 18:05:15;;;;;;;9.02;3.72;;;;;;;24.83;62.99;99828.88;7784859;32;37960;-72
2022/08/29 18:09:31;;;;;;;10.82;3.80;;;;;;;24.96;62.41;99835.09;7792608;32;36765;-72
2022/08/29 18:13:47;;;;;;;8.65;3.50;;;;;;;24.74;63.05;99841.03;7792436;32;39302;-72
2022/08/29 18:18:04;;;;;;;6.75;3.70;;;;;;;24.68;63.39;99845.31;7768692;32;40751;-73
2022/08/29 18:22:20;;;;;;;9.57;3.45;;;;;;;24.55;62.68;99846.63;7765188;32;36297;-72
2022/08/29 18:26:36;;;;;;;10.60;3.90;;;;;;;24.49;63.54;99851.63;7765334;32;37498;-73
2022/08/29 18:30:53;;;;;;;9.55;3.90;;;;;;;24.34;63.81;99861.66;7777902;32;39396;-73
2022/08/29 18:35:10;;;;;;;6.18;3.87;;;;;;;24.47;62.54;99865.09;7791280;32;40011;-73
2022/08/29 18:39:26;;;;;;;8.27;4.25;;;;;;;24.35;62.98;99863.28;7791400;32;38811;-71
2022/08/29 18:43:43;;;;;;;9.13;4.07;;;;;;;24.17;64.22;99870.41;7765600;32;35761;-73
2022/08/29 18:48:03;;;;;;;7.53;4.25;;;;;;;24.18;64.24;99877.56;7781981;32;39166;-73
2022/08/29 18:52:20;;;;;;;7.07;3.85;;;;;;;24.06;64.86;99863.75;7773843;32;39931;-73
2022/08/29 18:56:37;;;;;;;11.50;4.87;;;;;;;24.18;63.68;99874.78;7767081;32;38105;-74
2022/08/29 19:00:58;;;;;;;14.27;4.80;;;;;;;24.21;63.24;99882.44;7764919;32;37060;-72
2022/08/29 19:05:17;;;;;;;7.80;4.32;;;;;;;24.06;64.40;99878.50;7787952;32;39523;-72
2022/08/29 19:09:33;;;;;;;7.20;4.30;;;;;;;23.98;63.89;99880.28;7781713;32;39946;-72
2022/08/29 19:13:50;;;;;;;14.02;4.12;;;;;;;23.93;63.88;99885.34;7783781;32;37944;-72
2022/08/29 19:18:10;;;;;;;7.32;3.70;;;;;;;23.81;64.73;99889.03;7764615;32;37854;-72
2022/08/29 19:22:27;;;;;;;12.35;4.15;;;;;;;23.95;63.96;99900.50;7764584;32;39300;-72
2022/08/29 19:26:44;;;;;;;5.90;3.55;;;;;;;23.92;64.20;99894.84;7765125;32;40804;-72
2022/08/29 19:31:01;;;;;;;8.27;4.32;;;;;;;23.87;64.70;99893.16;7764279;32;39169;-72
2022/08/29 19:35:21;;;;;;;5.82;3.62;;;;;;;23.89;64.53;99899.19;7766532;32;37070;-72
2022/08/29 19:39:37;;;;;;;8.75;3.90;;;;;;;23.84;64.98;99896.66;7768153;32;40074;-72
2022/08/29 19:43:54;;;;;;;12.32;4.53;;;;;;;23.75;65.67;99885.66;7791249;32;40897;-72
2022/08/29 19:48:11;;;;;;;8.73;4.07;;;;;;;23.90;65.04;99892.41;7791047;32;38936;-73
2022/08/29 19:52:30;;;;;;;9.65;4.00;;;;;;;23.81;64.52;99889.81;7791156;32;38134;-73
2022/08/29 19:56:46;;;;;;;13.07;4.12;;;;;;;23.95;63.75;99899.69;7791510;32;37664;-72
2022/08/29 20:01:04;;;;;;;13.32;3.80;;;;;;;23.77;64.98;99902.00;7790970;32;39575;-72
2022/08/29 20:05:21;;;;;;;8.23;3.92;;;;;;;23.58;65.37;99900.72;7779535;32;38866;-70
2022/08/29 20:09:37;;;;;;;8.25;4.32;;;;;;;23.57;65.49;99896.31;7765473;32;38625;-71
2022/08/29 20:13:56;;;;;;;6.93;4.37;;;;;;;23.67;64.99;99899.75;7766817;32;39256;-71
2022/08/29 20:18:12;;;;;;;8.88;3.70;;;;;;;23.88;63.81;99905.91;7766869;32;39437;-71
2022/08/29 20:22:28;;;;;;;8.38;4.30;;;;;;;23.71;64.09;99909.81;7791164;32;37565;-70
2022/08/29 20:26:46;;;;;;;11.12;3.90;;;;;;;23.63;64.72;99911.59;7794160;32;37548;-71
2022/08/29 20:31:03;;;;;;;12.32;4.05;;;;;;;23.71;64.36;99918.16;7778476;32;39858;-71
2022/08/29 20:39:56;;;;;;;9.25;3.70;;;;;;;23.59;64.95;99921.00;7774413;32;37948;-71